Time;durP1;ratioP1;P1;durP2;ratioP2;P2;SDS_P1;SDS_P2;PMS_P1;PMS_P2;Temp;Humidity;BMP_temperature;BMP_pressure;BME280_temperature;BME280_humidity;BME280_pressure;Samples;Min_cycle;Max_cycle;Signal;HPM_P1;HPM_P2
2022/01/30 00:02:02;;;;;;;13.70;3.53;;;;;;;4.83;85.42;99582.15;1707644;84;21011;-77
2022/01/30 00:04:29;;;;;;;13.80;2.43;;;;;;;4.88;84.76;99585.94;1714535;83;21085;-77
2022/01/30 00:06:56;;;;;;;5.50;1.67;;;;;;;4.96;84.89;99576.61;1728878;82;21015;-85
2022/01/30 00:09:23;;;;;;;10.77;2.20;;;;;;;4.97;84.87;99567.50;1729318;82;21090;-77
2022/01/30 00:11:55;;;;;;;6.43;1.87;;;;;;;4.97;84.84;99593.47;1729179;82;21067;-84
2022/01/30 00:14:21;;;;;;;10.90;2.23;;;;;;;4.98;84.64;99597.75;1728762;82;21019;-79
2022/01/30 00:16:59;;;;;;;8.33;1.50;;;;;;;4.95;84.50;99638.55;1729182;83;21260;-84
2022/01/30 00:19:33;;;;;;;11.50;2.70;;;;;;;4.85;84.48;99630.13;1727963;82;21585;-79
2022/01/30 00:22:11;;;;;;;7.93;2.73;;;;;;;4.69;84.69;99624.05;1727874;82;21535;-79
2022/01/30 00:24:41;;;;;;;12.10;2.50;;;;;;;4.57;84.92;99606.63;1726121;82;21052;-78
2022/01/30 00:26:54;;;;;;;10.40;1.83;;;;;;;4.50;85.38;99605.94;1726817;82;21485;-78
2022/01/30 00:29:21;;;;;;;7.93;1.83;;;;;;;4.45;85.53;99607.34;1729178;83;21188;-84
2022/01/30 00:44:19;;;;;;;9.70;2.33;;;;;;;4.44;86.21;99585.34;1729128;83;21560;-76
2022/01/30 00:46:46;;;;;;;8.70;1.63;;;;;;;4.48;86.19;99589.55;1729216;82;21124;-77
2022/01/30 00:49:13;;;;;;;8.60;2.10;;;;;;;4.51;86.01;99593.36;1729188;83;21019;-76
2022/01/30 00:51:40;;;;;;;8.80;1.97;;;;;;;4.55;85.84;99602.78;1729132;82;22088;-76
2022/01/30 00:54:10;;;;;;;10.07;2.40;;;;;;;4.60;85.43;99603.94;1729297;83;21016;-76
2022/01/30 00:56:37;;;;;;;10.98;1.75;;;;;;;4.64;85.13;99610.78;1729384;82;21103;-83
2022/01/30 00:59:05;;;;;;;12.47;2.43;;;;;;;4.68;84.74;99611.97;1729359;82;21762;-80
2022/01/30 01:01:32;;;;;;;9.87;2.07;;;;;;;4.72;84.00;99611.44;1729138;83;21071;-76
2022/01/30 01:04:00;;;;;;;10.63;3.07;;;;;;;4.73;83.66;99635.65;1729286;82;21021;-76
2022/01/30 01:06:27;;;;;;;12.23;2.47;;;;;;;4.75;83.41;99591.04;1739920;82;21284;-84
2022/01/30 01:09:01;;;;;;;11.93;1.90;;;;;;;4.77;83.36;99599.20;1739402;82;21026;-76
2022/01/30 01:11:57;;;;;;;10.93;2.33;;;;;;;4.77;83.26;99596.59;1739445;82;21176;-75
2022/01/30 01:24:49;;;;;;;9.60;2.33;;;;;;;4.79;81.71;99615.56;1739655;82;21400;-80
2022/01/30 01:27:16;;;;;;;16.57;2.43;;;;;;;4.80;80.93;99576.20;1739257;82;21520;-75
2022/01/30 01:29:43;;;;;;;12.17;1.70;;;;;;;4.80;80.65;99570.55;1739763;82;21074;-75
2022/01/30 01:32:10;;;;;;;12.47;2.50;;;;;;;4.80;80.54;99591.78;1739366;82;21086;-75
2022/01/30 01:34:39;;;;;;;14.93;2.43;;;;;;;4.80;80.70;99570.55;1739768;82;21034;-75
2022/01/30 01:37:11;;;;;;;16.62;2.27;;;;;;;4.81;80.88;99568.80;1739505;82;21932;-75
2022/01/30 01:39:38;;;;;;;11.85;2.15;;;;;;;4.77;80.48;99574.53;1739863;82;21062;-75
2022/01/30 01:42:06;;;;;;;11.93;2.27;;;;;;;4.79;80.71;99564.94;1742252;82;21028;-75
2022/01/30 01:44:42;;;;;;;11.13;2.30;;;;;;;4.74;80.42;99577.21;1709903;84;21058;-75
2022/01/30 01:47:10;;;;;;;14.30;2.20;;;;;;;4.73;79.46;99570.30;1736018;82;21444;-76
2022/01/30 01:49:39;;;;;;;11.47;2.20;;;;;;;4.72;78.72;99571.20;1737057;82;21079;-75
2022/01/30 01:54:50;;;;;;;10.03;2.20;;;;;;;4.72;77.93;99558.67;1736777;82;21023;-75
2022/01/30 01:57:18;;;;;;;16.00;2.40;;;;;;;4.71;78.25;99557.80;1736825;82;21091;-79
2022/01/30 01:59:54;;;;;;;15.30;2.37;;;;;;;4.72;77.76;99553.48;1736340;82;21007;-75
2022/01/30 02:02:41;;;;;;;15.50;3.00;;;;;;;4.74;78.03;99594.50;1736800;82;22034;-75
2022/01/30 02:05:09;;;;;;;14.47;2.90;;;;;;;4.74;77.54;99546.48;1736697;82;21031;-75
2022/01/30 02:10:32;;;;;;;13.77;2.40;;;;;;;4.78;77.78;99542.92;1709963;82;21066;-75
2022/01/30 02:12:56;;;;;;;15.37;2.47;;;;;;;4.80;77.50;99544.59;1737301;82;21528;-79
2022/01/30 02:23:58;;;;;;;11.77;2.50;;;;;;;5.08;77.21;99527.78;1736825;82;21019;-75
2022/01/30 02:26:03;;;;;;;13.40;2.70;;;;;;;5.21;76.75;99523.52;1736834;82;21003;-85
2022/01/30 02:28:33;;;;;;;9.03;1.97;;;;;;;5.28;76.74;99520.71;1736760;82;21144;-75
2022/01/30 02:31:09;;;;;;;10.33;2.43;;;;;;;5.30;76.87;99525.42;1737044;82;21047;-76
2022/01/30 02:33:34;;;;;;;13.73;2.17;;;;;;;5.32;76.18;99527.53;1736853;82;21031;-77
2022/01/30 02:36:02;;;;;;;12.20;2.30;;;;;;;5.36;75.93;99515.30;1737035;82;21023;-76
2022/01/30 02:38:29;;;;;;;12.47;1.93;;;;;;;5.38;75.31;99503.11;1736704;82;21565;-75
2022/01/30 02:40:58;;;;;;;12.07;2.00;;;;;;;5.41;74.68;99495.22;1736977;82;21890;-75
2022/01/30 02:43:30;;;;;;;11.50;2.00;;;;;;;5.40;75.08;99500.00;1736527;82;21066;-78
2022/01/30 02:46:20;;;;;;;12.20;2.27;;;;;;;5.40;75.35;99499.15;1736403;82;21028;-82
2022/01/30 02:48:52;;;;;;;12.50;2.13;;;;;;;5.39;74.93;99470.17;1734218;82;21000;-75
2022/01/30 02:51:18;;;;;;;;;;;;;;;5.39;74.45;99496.16;1739880;82;21476;-75
2022/01/30 02:53:54;;;;;;;12.03;2.27;;;;;;;5.39;74.03;99455.43;1736799;82;21203;-76
2022/01/30 02:56:14;;;;;;;10.27;2.10;;;;;;;5.42;71.80;99464.88;1710571;82;21008;-86
2022/01/30 02:58:41;;;;;;;14.10;2.40;;;;;;;5.45;72.84;99463.48;1736716;82;21035;-75
2022/01/30 03:01:08;;;;;;;9.97;1.90;;;;;;;5.44;73.04;99454.84;1737092;82;21500;-75
2022/01/30 03:03:35;;;;;;;16.97;2.20;;;;;;;5.43;72.70;99472.64;1736796;82;21078;-76
2022/01/30 03:06:03;;;;;;;8.10;2.10;;;;;;;5.44;72.96;99487.33;1719549;82;21477;-75
2022/01/30 03:08:30;;;;;;;9.80;2.20;;;;;;;5.43;72.53;99455.75;1707182;84;21484;-75
2022/01/30 03:10:56;;;;;;;14.13;2.00;;;;;;;5.44;71.63;99463.09;1707610;84;21062;-75
2022/01/30 03:13:24;;;;;;;11.07;2.07;;;;;;;5.43;72.29;99444.05;1682768;84;21048;-76
2022/01/30 03:15:51;;;;;;;10.53;1.93;;;;;;;5.43;72.06;99462.67;1707375;84;21034;-75
2022/01/30 03:18:18;;;;;;;10.27;1.90;;;;;;;5.45;70.82;99453.94;1707371;84;21107;-85
2022/01/30 03:20:45;;;;;;;9.73;1.90;;;;;;;5.46;70.91;99456.95;1707271;84;21030;-76
2022/01/30 03:23:12;;;;;;;12.00;2.00;;;;;;;5.46;71.88;99446.55;1707248;84;21070;-76
2022/01/30 03:25:40;;;;;;;13.20;2.07;;;;;;;5.46;70.38;99431.38;1707255;84;21038;-76
2022/01/30 03:28:27;;;;;;;15.27;2.70;;;;;;;5.45;70.63;99453.94;1705449;84;21070;-77
2022/01/30 03:31:00;;;;;;;13.73;2.17;;;;;;;5.44;70.83;99449.64;1706236;84;21800;-76
2022/01/30 03:33:39;;;;;;;8.90;1.97;;;;;;;5.43;70.81;99467.87;1707027;84;21544;-76
2022/01/30 03:36:07;;;;;;;13.30;2.40;;;;;;;5.44;69.84;99453.55;1707229;84;21010;-76
2022/01/30 03:38:35;;;;;;;9.83;1.90;;;;;;;5.44;70.35;99461.34;1707503;84;21022;-76
2022/01/30 03:41:02;;;;;;;10.40;1.83;;;;;;;5.45;70.20;99518.06;1707233;84;21026;-85
2022/01/30 03:43:31;;;;;;;11.20;1.70;;;;;;;5.45;70.60;99470.83;1707509;84;22052;-84
2022/01/30 03:45:59;;;;;;;9.87;2.13;;;;;;;5.46;70.29;99458.67;1707165;84;21022;-76
2022/01/30 03:48:26;;;;;;;11.73;2.60;;;;;;;5.45;70.63;99476.02;1707579;84;20991;-76
2022/01/30 03:51:04;;;;;;;11.30;2.20;;;;;;;5.46;69.85;99476.87;1706055;84;21545;-76
2022/01/30 03:53:32;;;;;;;12.30;2.30;;;;;;;5.45;69.45;99438.34;1707382;84;21026;-76
2022/01/30 03:56:00;;;;;;;10.10;2.30;;;;;;;5.45;69.28;99463.48;1707213;84;21146;-83
2022/01/30 03:58:33;;;;;;;13.87;2.10;;;;;;;5.48;68.46;99482.87;1707087;84;21063;-76
2022/01/30 04:01:03;;;;;;;20.97;3.77;;;;;;;5.46;69.91;99446.55;1706416;84;21043;-76
2022/01/30 04:03:29;;;;;;;15.57;2.27;;;;;;;5.45;69.49;99435.73;1682993;84;21015;-76
2022/01/30 04:05:57;;;;;;;13.70;2.23;;;;;;;5.43;69.47;99457.05;1707241;82;21618;-82
2022/01/30 04:08:25;;;;;;;11.10;1.97;;;;;;;5.41;68.78;99430.25;1707224;84;21949;-76
2022/01/30 04:10:57;;;;;;;12.67;2.00;;;;;;;5.36;69.45;99427.79;1706663;84;21017;-76
2022/01/30 04:13:36;;;;;;;10.77;2.23;;;;;;;5.33;69.10;99433.08;1707415;84;21058;-83
2022/01/30 04:16:21;;;;;;;14.73;2.30;;;;;;;5.33;68.80;99443.93;1706570;84;21030;-76
2022/01/30 04:18:58;;;;;;;11.28;2.02;;;;;;;5.35;69.48;99427.85;1707469;84;21026;-76
2022/01/30 04:21:28;;;;;;;11.75;2.05;;;;;;;5.31;69.18;99423.17;1704542;84;21169;-78
2022/01/30 04:24:13;;;;;;;7.60;1.87;;;;;;;5.30;69.59;99422.79;1707270;84;21026;-77
2022/01/30 04:27:00;;;;;;;8.57;1.40;;;;;;;5.28;69.82;99419.38;1631862;87;21103;-76
2022/01/30 04:29:32;;;;;;;10.37;1.63;;;;;;;5.29;69.82;99407.23;1599659;87;21544;-81
2022/01/30 04:32:12;;;;;;;10.20;1.90;;;;;;;5.24;68.89;99397.46;1648328;84;20971;-76
2022/01/30 04:34:59;;;;;;;9.90;1.77;;;;;;;5.24;69.81;99412.59;1707379;84;21663;-76
2022/01/30 04:40:49;;;;;;;10.50;1.90;;;;;;;5.29;68.98;99399.44;1706562;84;21560;-76
2022/01/30 04:57:40;;;;;;;14.17;2.37;;;;;;;5.43;68.79;99445.36;1705935;84;21062;-76
2022/01/30 05:00:19;;;;;;;12.53;2.03;;;;;;;5.45;68.20;99453.09;1684945;84;21010;-76
2022/01/30 05:08:18;;;;;;;10.18;2.02;;;;;;;5.46;67.65;99419.69;1742064;82;21036;-77
2022/01/30 05:10:47;;;;;;;9.67;1.93;;;;;;;5.48;67.50;99416.14;1742007;82;21068;-76
2022/01/30 05:13:34;;;;;;;8.87;1.60;;;;;;;5.48;68.10;99418.75;1742422;82;21000;-79
2022/01/30 05:16:04;;;;;;;10.70;2.03;;;;;;;5.45;67.64;99376.42;1741330;82;21861;-76
2022/01/30 05:18:43;;;;;;;8.63;1.83;;;;;;;5.43;68.30;99391.20;1741818;82;21027;-75
2022/01/30 05:21:21;;;;;;;9.13;1.63;;;;;;;5.40;68.75;99417.30;1742383;82;21067;-83
2022/01/30 05:23:58;;;;;;;7.70;1.83;;;;;;;5.36;68.51;99419.99;1742136;82;21020;-77
2022/01/30 05:26:27;;;;;;;10.05;2.10;;;;;;;5.26;68.96;99467.09;1742649;82;21061;-80
2022/01/30 05:28:57;;;;;;;9.10;1.90;;;;;;;5.02;69.71;99476.02;1742095;82;21940;-77
2022/01/30 05:31:43;;;;;;;11.53;1.53;;;;;;;4.64;70.94;99472.76;1742336;82;21479;-77
2022/01/30 05:34:13;;;;;;;11.08;2.30;;;;;;;4.24;72.46;99428.45;1741961;82;21062;-77
2022/01/30 05:36:45;;;;;;;10.23;1.80;;;;;;;4.02;72.92;99412.61;1705235;82;21012;-77
2022/01/30 05:39:23;;;;;;;8.47;1.80;;;;;;;3.97;73.92;99401.95;1741554;82;21022;-87
2022/01/30 05:42:10;;;;;;;12.60;2.20;;;;;;;3.91;74.34;99374.44;1742373;82;21197;-76
2022/01/30 05:44:55;;;;;;;13.57;2.13;;;;;;;3.90;74.85;99374.47;1742164;82;21051;-80
2022/01/30 05:47:26;;;;;;;7.80;1.67;;;;;;;3.93;74.96;99371.80;1740977;82;21024;-76
2022/01/30 05:50:04;;;;;;;7.37;1.70;;;;;;;4.01;75.18;99404.40;1740132;82;21028;-76
2022/01/30 05:52:39;;;;;;;10.90;1.83;;;;;;;4.10;74.97;99398.15;1742725;82;21025;-76
2022/01/30 05:55:14;;;;;;;9.57;1.90;;;;;;;4.18;74.89;99365.05;1742449;82;21135;-87
2022/01/30 05:57:41;;;;;;;8.67;1.93;;;;;;;4.17;74.97;99386.70;1742549;82;21012;-76
2022/01/30 06:00:13;;;;;;;10.43;1.63;;;;;;;4.15;75.03;99382.44;1742159;82;21047;-76
2022/01/30 06:02:50;;;;;;;7.10;1.83;;;;;;;4.09;75.19;99400.31;1742282;82;21043;-76
2022/01/30 06:05:20;;;;;;;8.60;1.70;;;;;;;4.04;75.45;99368.47;1742655;82;21040;-76
2022/01/30 06:07:51;;;;;;;10.60;1.83;;;;;;;4.00;75.63;99396.23;1739758;82;21859;-81
2022/01/30 06:10:15;;;;;;;10.35;2.15;;;;;;;3.96;75.87;99382.08;1739312;82;21055;-76
2022/01/30 06:12:42;;;;;;;9.90;1.70;;;;;;;3.93;76.08;99410.23;1739317;82;21470;-77
2022/01/30 06:15:11;;;;;;;9.83;1.83;;;;;;;3.84;76.33;99396.22;1739323;82;21493;-79
2022/01/30 06:17:37;;;;;;;9.13;1.53;;;;;;;3.77;76.60;99439.59;1739244;82;21026;-78
2022/01/30 06:20:06;;;;;;;11.37;2.30;;;;;;;3.68;77.13;99474.79;1739465;82;21068;-79
2022/01/30 06:22:39;;;;;;;8.10;1.67;;;;;;;3.51;77.30;99466.56;1701225;82;21026;-77
2022/01/30 06:25:11;;;;;;;7.87;1.60;;;;;;;3.34;77.66;99430.24;1701541;82;21030;-82
2022/01/30 06:27:57;;;;;;;9.13;1.57;;;;;;;3.17;78.09;99399.16;1739456;82;21020;-77
2022/01/30 06:30:34;;;;;;;11.13;1.63;;;;;;;3.06;78.84;99395.52;1739428;82;21488;-82
2022/01/30 06:33:10;;;;;;;13.20;1.80;;;;;;;3.02;79.29;99380.92;1709277;82;21145;-77
2022/01/30 06:35:46;;;;;;;12.73;2.20;;;;;;;3.02;79.59;99374.45;1739211;82;21545;-76
2022/01/30 06:38:24;;;;;;;9.33;1.73;;;;;;;3.03;79.83;99383.94;1739692;82;21052;-76
2022/01/30 06:41:10;;;;;;;12.43;2.00;;;;;;;3.09;80.21;99414.41;1739948;82;21028;-76
2022/01/30 06:43:55;;;;;;;14.00;2.10;;;;;;;3.19;80.50;99394.36;1739977;82;21560;-76
2022/01/30 06:46:30;;;;;;;14.20;2.63;;;;;;;3.32;80.67;99397.49;1739579;82;21135;-76
2022/01/30 06:49:16;;;;;;;14.23;2.27;;;;;;;3.43;80.55;99395.50;1739766;82;20996;-76
2022/01/30 06:52:03;;;;;;;14.37;1.93;;;;;;;3.55;80.29;99391.33;1679782;85;21129;-76
2022/01/30 06:54:49;;;;;;;8.07;2.17;;;;;;;3.68;79.90;99375.47;1676332;85;21050;-80
2022/01/30 06:57:35;;;;;;;7.23;1.70;;;;;;;3.74;79.63;99357.16;1715770;82;21451;-80
2022/01/30 07:00:20;;;;;;;8.03;1.73;;;;;;;3.82;79.28;99385.03;1739852;82;21306;-76
2022/01/30 07:02:57;;;;;;;9.43;2.27;;;;;;;3.89;79.09;99354.63;1728471;82;21040;-76
2022/01/30 07:05:27;;;;;;;11.00;2.40;;;;;;;3.96;78.77;99402.41;1735489;82;21024;-87
2022/01/30 07:08:11;;;;;;;10.70;2.50;;;;;;;4.01;78.58;99349.10;1726845;82;20997;-76
2022/01/30 07:10:39;;;;;;;10.47;2.90;;;;;;;4.00;78.28;99369.00;1723696;83;21040;-76
2022/01/30 07:13:08;;;;;;;11.77;2.37;;;;;;;4.03;78.18;99354.66;1706210;82;21816;-87
2022/01/30 07:15:37;;;;;;;8.93;2.70;;;;;;;4.05;77.92;99347.27;1732614;82;21487;-77
2022/01/30 07:18:04;;;;;;;9.23;2.67;;;;;;;4.08;77.96;99351.95;1717689;82;21072;-75
2022/01/30 07:20:31;;;;;;;8.53;2.57;;;;;;;4.15;77.67;99347.43;1720639;82;21019;-76
2022/01/30 07:22:58;;;;;;;9.23;1.93;;;;;;;4.21;77.33;99362.81;1700968;84;21107;-76
2022/01/30 07:25:25;;;;;;;7.40;2.20;;;;;;;4.28;77.21;99354.44;1708436;82;21973;-76
2022/01/30 07:27:52;;;;;;;9.47;2.40;;;;;;;4.32;77.05;99381.98;1709213;83;21044;-77
2022/01/30 07:30:19;;;;;;;10.70;2.37;;;;;;;4.35;76.79;99387.95;1709456;83;21041;-76
2022/01/30 07:32:47;;;;;;;8.53;2.50;;;;;;;4.40;76.67;99392.99;1710010;83;21061;-77
2022/01/30 07:35:14;;;;;;;14.53;2.37;;;;;;;4.45;76.41;99389.83;1710173;83;21081;-76
2022/01/30 07:37:41;;;;;;;11.43;2.40;;;;;;;4.50;75.82;99411.77;1710253;83;21127;-76
2022/01/30 07:40:09;;;;;;;9.63;2.00;;;;;;;4.55;75.40;99372.27;1710551;83;21052;-76
2022/01/30 07:42:36;;;;;;;14.27;2.20;;;;;;;4.57;75.54;99377.82;1710273;83;21021;-76
2022/01/30 07:45:05;;;;;;;8.83;2.10;;;;;;;4.58;75.16;99387.75;1710586;83;21052;-76
2022/01/30 07:47:34;;;;;;;11.00;2.50;;;;;;;4.61;74.91;99406.66;1706370;83;21079;-77
2022/01/30 07:50:01;;;;;;;11.60;1.70;;;;;;;4.65;74.47;99429.03;1710381;83;21576;-76
2022/01/30 07:52:28;;;;;;;10.00;2.40;;;;;;;4.69;74.55;99393.48;1710805;83;21023;-76
2022/01/30 07:54:55;;;;;;;10.57;2.20;;;;;;;4.69;74.63;99403.41;1710769;83;21042;-76
2022/01/30 07:57:22;;;;;;;11.53;2.10;;;;;;;4.68;74.34;99380.95;1710671;83;21003;-76
2022/01/30 07:59:49;;;;;;;12.00;2.07;;;;;;;4.68;74.52;99393.05;1710790;83;21547;-85
2022/01/30 08:02:16;;;;;;;10.37;2.43;;;;;;;4.69;73.87;99451.87;1711857;82;22063;-76
2022/01/30 08:04:43;;;;;;;12.10;2.27;;;;;;;4.75;73.96;99415.36;1713677;82;21037;-76
2022/01/30 08:07:10;;;;;;;14.63;2.97;;;;;;;4.80;73.30;99386.67;1712518;82;21047;-76
2022/01/30 08:09:37;;;;;;;13.93;2.53;;;;;;;4.80;73.01;99397.91;1730179;83;21004;-76
2022/01/30 08:12:06;;;;;;;13.33;2.80;;;;;;;4.81;73.47;99389.66;1730129;83;21165;-76
2022/01/30 08:14:32;;;;;;;14.77;2.83;;;;;;;4.82;72.92;99407.80;1730023;83;21532;-76
2022/01/30 08:16:59;;;;;;;14.63;2.37;;;;;;;4.85;72.69;99389.95;1730165;83;21004;-76
2022/01/30 08:19:26;;;;;;;13.07;3.17;;;;;;;4.86;72.07;99410.70;1730173;83;21651;-75
2022/01/30 08:21:56;;;;;;;16.67;3.83;;;;;;;4.92;72.80;99413.56;1730139;83;21004;-75
2022/01/30 08:24:24;;;;;;;12.53;2.70;;;;;;;4.95;72.79;99447.22;1730144;83;21062;-75
2022/01/30 08:26:51;;;;;;;16.50;3.40;;;;;;;4.97;72.25;99446.73;1730042;83;21148;-73
2022/01/30 08:29:18;;;;;;;15.87;3.20;;;;;;;5.00;71.98;99427.63;1730057;83;20939;-83
2022/01/30 08:31:45;;;;;;;15.33;3.50;;;;;;;5.02;71.26;99395.97;1730076;83;21031;-73
2022/01/30 08:34:12;;;;;;;13.27;2.67;;;;;;;5.06;70.35;99438.66;1730191;83;21277;-76
2022/01/30 08:36:39;;;;;;;17.40;3.70;;;;;;;5.10;70.62;99463.67;1730136;83;21452;-72
2022/01/30 08:39:06;;;;;;;12.43;2.43;;;;;;;5.11;71.31;99456.27;1730392;83;21129;-74
2022/01/30 08:41:33;;;;;;;15.03;2.80;;;;;;;5.11;71.16;99483.54;1730102;83;21015;-92
2022/01/30 08:44:00;;;;;;;13.10;2.60;;;;;;;5.13;70.92;99470.06;1730115;83;21009;-74
2022/01/30 08:46:27;;;;;;;13.83;3.10;;;;;;;5.16;69.82;99505.95;1730132;83;21591;-72
2022/01/30 08:48:54;;;;;;;14.43;2.73;;;;;;;5.18;70.54;99465.17;1730265;83;21032;-74
2022/01/30 08:51:22;;;;;;;10.80;2.20;;;;;;;5.18;70.53;99459.97;1730306;83;21540;-72
2022/01/30 08:53:49;;;;;;;11.43;2.77;;;;;;;5.18;70.78;99475.10;1730444;83;21738;-74
2022/01/30 08:56:18;;;;;;;15.13;2.80;;;;;;;5.17;70.42;99494.20;1730166;83;21095;-74
2022/01/30 08:58:45;;;;;;;17.03;3.47;;;;;;;5.17;70.43;99495.95;1730611;83;21031;-73
2022/01/30 09:01:13;;;;;;;12.60;2.50;;;;;;;5.16;70.18;99496.86;1730306;83;21015;-74
2022/01/30 09:03:42;;;;;;;19.07;3.87;;;;;;;5.16;70.42;99508.55;1730502;83;21184;-73
2022/01/30 09:06:10;;;;;;;15.80;3.47;;;;;;;5.16;70.42;99531.92;1730132;83;21024;-74
2022/01/30 09:08:37;;;;;;;16.87;3.33;;;;;;;5.12;70.59;99526.79;1730214;83;21007;-73
2022/01/30 09:11:05;;;;;;;14.57;2.17;;;;;;;5.05;70.86;99560.80;1730309;83;21458;-74
2022/01/30 09:13:34;;;;;;;12.63;2.53;;;;;;;4.98;71.33;99553.61;1736572;81;22050;-76
2022/01/30 09:16:02;;;;;;;8.03;2.37;;;;;;;4.90;71.84;99556.44;1713050;81;21111;-76
2022/01/30 09:18:30;;;;;;;9.90;3.00;;;;;;;4.84;72.21;99566.97;1721423;83;21047;-78
2022/01/30 09:20:58;;;;;;;11.60;2.37;;;;;;;4.79;72.71;99558.89;1712616;83;21513;-74
2022/01/30 09:23:25;;;;;;;11.67;2.20;;;;;;;4.74;72.84;99587.59;1707376;83;21036;-78
2022/01/30 09:25:52;;;;;;;13.30;3.23;;;;;;;4.63;73.25;99615.13;1721924;83;21011;-75
2022/01/30 09:28:19;;;;;;;10.50;2.53;;;;;;;4.49;73.70;99600.35;1715988;83;21117;-75
2022/01/30 09:30:46;;;;;;;11.57;3.27;;;;;;;4.35;74.12;99585.55;1715134;83;21050;-76
2022/01/30 09:33:13;;;;;;;12.03;2.70;;;;;;;4.24;74.75;99591.02;1717584;83;20920;-75
2022/01/30 09:35:40;;;;;;;11.20;2.90;;;;;;;4.17;75.04;99581.22;1716020;83;21012;-75
2022/01/30 09:38:07;;;;;;;10.87;2.43;;;;;;;4.15;75.37;99577.80;1713756;83;21050;-74
2022/01/30 09:40:34;;;;;;;17.60;4.43;;;;;;;4.17;75.57;99590.75;1715559;83;21314;-74
2022/01/30 09:43:02;;;;;;;13.80;2.53;;;;;;;4.22;75.82;99602.72;1717042;83;21026;-75
2022/01/30 09:45:29;;;;;;;10.00;2.37;;;;;;;4.27;75.92;99598.73;1716871;83;21046;-74
2022/01/30 09:47:58;;;;;;;9.30;2.30;;;;;;;4.33;75.86;99623.66;1716934;83;21004;-73
2022/01/30 09:50:25;;;;;;;15.97;2.93;;;;;;;4.37;75.82;99640.84;1717893;82;21036;-79
2022/01/30 09:52:53;;;;;;;11.93;2.77;;;;;;;4.36;75.87;99638.70;1713724;83;21210;-73
2022/01/30 09:55:20;;;;;;;9.33;2.27;;;;;;;4.31;75.95;99596.90;1695037;83;21591;-78
2022/01/30 09:57:48;;;;;;;13.40;2.40;;;;;;;4.28;76.13;99628.95;1714334;83;21043;-74
2022/01/30 10:00:17;;;;;;;13.77;2.50;;;;;;;4.25;76.32;99618.66;1717855;83;21104;-73
2022/01/30 10:02:44;;;;;;;9.67;2.10;;;;;;;4.23;76.57;99604.86;1715581;83;21023;-76
2022/01/30 10:05:13;;;;;;;13.47;2.20;;;;;;;4.22;76.75;99613.09;1716980;83;21192;-74
2022/01/30 10:07:52;;;;;;;13.50;2.50;;;;;;;4.24;76.91;99633.82;1710212;82;22063;-75
2022/01/30 10:10:24;;;;;;;11.33;2.33;;;;;;;4.25;77.01;99606.53;1729725;82;21060;-74
2022/01/30 10:13:12;;;;;;;12.77;2.63;;;;;;;4.27;77.16;99631.56;1711187;83;21107;-76
2022/01/30 10:15:52;;;;;;;14.33;2.50;;;;;;;4.29;77.25;99618.97;1676614;85;21122;-73
2022/01/30 10:18:21;;;;;;;11.90;3.12;;;;;;;4.38;77.34;99601.91;1676726;85;21180;-73
2022/01/30 10:20:48;;;;;;;11.57;2.87;;;;;;;4.52;77.45;99609.77;1676471;85;21556;-77
2022/01/30 10:23:16;;;;;;;13.40;2.87;;;;;;;4.60;77.34;99633.38;1676789;85;21047;-74
2022/01/30 10:25:54;;;;;;;10.30;2.57;;;;;;;4.77;77.39;99588.81;1653893;85;21083;-73
2022/01/30 10:28:31;;;;;;;8.70;2.80;;;;;;;4.95;77.31;99591.34;1676845;85;21060;-76
2022/01/30 10:31:02;;;;;;;15.63;3.40;;;;;;;5.04;76.70;99609.27;1676475;85;22268;-77
2022/01/30 10:33:47;;;;;;;13.30;2.93;;;;;;;5.16;76.41;99599.47;1676604;85;21549;-74
2022/01/30 10:36:25;;;;;;;14.97;4.00;;;;;;;5.20;76.08;99591.53;1676506;85;21068;-91
2022/01/30 10:39:12;;;;;;;18.03;3.73;;;;;;;5.22;75.70;99608.38;1675882;85;21045;-77
2022/01/30 10:41:37;;;;;;;15.33;2.70;;;;;;;5.22;75.28;99594.09;1675746;85;21055;-79
2022/01/30 10:44:07;;;;;;;17.57;3.85;;;;;;;5.19;74.64;99611.91;1676616;85;21139;-80
2022/01/30 10:46:43;;;;;;;16.97;3.53;;;;;;;5.18;74.42;99622.34;1676704;85;20910;-77
2022/01/30 10:49:14;;;;;;;17.00;3.30;;;;;;;5.18;74.31;99632.73;1676732;85;21527;-83
2022/01/30 10:51:56;;;;;;;;;;;;;;;5.18;74.55;99632.73;1697137;84;21086;-81
2022/01/30 10:54:26;;;;;;;15.73;3.10;;;;;;;5.18;74.38;99637.92;1708796;84;20565;-83
2022/01/30 10:57:06;;;;;;;17.32;4.08;;;;;;;5.18;74.00;99643.97;1709049;84;21811;-77
2022/01/30 10:59:36;;;;;;;15.93;3.55;;;;;;;5.20;73.30;99641.34;1708678;84;21527;-82
2022/01/30 11:02:16;;;;;;;18.92;3.77;;;;;;;5.22;73.18;99639.11;1708895;84;21042;-78
2022/01/30 11:04:45;;;;;;;;;;;;;;;5.23;73.66;99636.91;1711450;84;21034;-77
2022/01/30 11:07:19;;;;;;;21.40;4.10;;;;;;;5.25;72.85;99645.97;1708529;84;38426;-75
2022/01/30 11:10:08;;;;;;;17.60;3.20;;;;;;;5.24;72.79;99650.31;1678987;84;21101;-77
2022/01/30 11:12:46;;;;;;;15.60;3.67;;;;;;;5.25;73.15;99671.50;1678007;84;21111;-77
2022/01/30 11:15:16;;;;;;;16.67;3.67;;;;;;;5.25;72.64;99670.20;1679039;85;21035;-74
2022/01/30 11:17:45;;;;;;;15.98;3.37;;;;;;;5.26;72.67;99678.84;1679247;85;21035;-73
2022/01/30 11:20:16;;;;;;;17.83;3.77;;;;;;;5.26;72.83;99688.78;1678988;85;21038;-84
2022/01/30 11:22:47;;;;;;;21.27;4.97;;;;;;;5.27;72.69;99671.47;1679179;85;21509;-74
2022/01/30 11:25:16;;;;;;;20.57;3.87;;;;;;;5.29;72.31;99677.03;1678986;84;20996;-74
2022/01/30 11:27:47;;;;;;;19.83;4.43;;;;;;;5.30;71.50;99696.91;1679047;85;21090;-75
2022/01/30 11:30:17;;;;;;;21.30;3.83;;;;;;;5.32;71.83;99701.63;1679031;85;21043;-80
2022/01/30 11:32:44;;;;;;;22.80;4.10;;;;;;;5.32;71.62;99695.55;1679598;85;22131;-75
2022/01/30 11:35:13;;;;;;;18.13;3.50;;;;;;;5.34;71.88;99698.52;1679342;85;21932;-75
2022/01/30 11:37:40;;;;;;;21.10;4.13;;;;;;;5.36;72.02;99697.20;1678967;84;21489;-75
2022/01/30 11:40:14;;;;;;;19.43;3.70;;;;;;;5.36;72.15;99704.99;1679379;84;21481;-86
2022/01/30 11:42:48;;;;;;;17.47;4.00;;;;;;;5.37;71.86;99707.98;1678991;85;21031;-75
2022/01/30 11:45:32;;;;;;;18.17;3.60;;;;;;;5.38;71.34;99704.52;1679443;84;21008;-74
2022/01/30 11:48:03;;;;;;;19.10;4.63;;;;;;;5.42;71.32;99716.97;1679195;85;22015;-73
2022/01/30 11:50:33;;;;;;;26.70;4.27;;;;;;;5.42;71.14;99720.41;1678384;85;21494;-88
2022/01/30 11:53:09;;;;;;;22.58;4.58;;;;;;;5.43;70.66;99720.84;1679153;85;26455;-74
2022/01/30 11:55:56;;;;;;;16.67;3.90;;;;;;;5.43;70.91;99717.36;1679272;85;21498;-88
2022/01/30 11:58:46;;;;;;;17.93;3.93;;;;;;;5.43;71.07;99738.16;1679036;85;21008;-75
2022/01/30 12:01:35;;;;;;;17.23;3.70;;;;;;;5.42;70.45;99755.50;1679308;85;21133;-74
2022/01/30 12:04:09;;;;;;;19.63;3.87;;;;;;;5.44;69.71;99750.28;1678033;84;21046;-74
2022/01/30 12:06:44;;;;;;;17.83;4.90;;;;;;;5.47;70.08;99744.99;1679288;84;20992;-75
2022/01/30 12:09:22;;;;;;;20.37;4.50;;;;;;;5.47;70.36;99754.09;1698025;84;20966;-78
2022/01/30 12:11:54;;;;;;;21.03;5.47;;;;;;;5.47;70.21;99761.89;1708866;84;21086;-74
2022/01/30 12:14:26;;;;;;;19.87;4.20;;;;;;;5.46;69.99;99768.84;1708466;84;21504;-74
2022/01/30 12:17:02;;;;;;;18.63;4.30;;;;;;;5.49;69.58;99760.11;1708497;84;21034;-74
2022/01/30 12:19:42;;;;;;;17.23;3.17;;;;;;;5.50;69.84;99754.85;1708457;84;21007;-88
2022/01/30 12:22:29;;;;;;;20.70;4.58;;;;;;;5.53;69.87;99765.62;1708762;84;21089;-75
2022/01/30 12:25:34;;;;;;;20.37;4.70;;;;;;;5.54;69.42;99790.70;1708697;84;21003;-74
2022/01/30 12:28:04;;;;;;;20.47;4.27;;;;;;;5.56;69.77;99769.43;1708631;84;21154;-75
2022/01/30 12:30:39;;;;;;;21.52;5.15;;;;;;;5.56;69.73;99778.08;1708767;84;20923;-85
2022/01/30 12:33:33;;;;;;;18.93;3.87;;;;;;;5.57;69.47;99759.43;1708716;84;21508;-75
2022/01/30 12:36:03;;;;;;;18.93;5.00;;;;;;;5.59;69.02;99795.34;1708645;84;21328;-75
2022/01/30 12:38:34;;;;;;;24.45;4.95;;;;;;;5.63;69.10;99781.84;1708733;84;21038;-75
2022/01/30 12:41:20;;;;;;;17.57;3.77;;;;;;;5.63;68.80;99797.44;1708631;84;21167;-76
2022/01/30 12:44:01;;;;;;;28.13;4.80;;;;;;;5.64;68.88;99804.33;1708956;84;21091;-76
2022/01/30 12:46:35;;;;;;;18.83;3.77;;;;;;;5.65;68.65;99809.48;1708645;84;21031;-83
2022/01/30 12:49:12;;;;;;;18.30;4.27;;;;;;;5.66;68.84;99807.30;1708764;84;20936;-75
2022/01/30 12:51:50;;;;;;;24.27;5.50;;;;;;;5.66;68.81;99811.66;1708611;84;21038;-75
2022/01/30 12:54:19;;;;;;;19.40;4.57;;;;;;;5.65;68.40;99825.53;1708120;84;21804;-74
2022/01/30 12:56:52;;;;;;;30.23;7.13;;;;;;;5.66;69.06;99833.75;1708665;84;20996;-85
2022/01/30 12:59:23;;;;;;;20.23;4.57;;;;;;;5.66;68.40;99841.10;1708772;84;21094;-73